KJ4UBX-11 Weather Reports


Display with metric or nautical units.
time (UTC)temp
F
wind
direction
speed
MPH
gust
MPH
rain 1hr
in
rain 24hr
in
rain mn
in
humidity
%
barometer
mb
20240304135022 23 0.0 0.0 0.00 0.00 0.00 100 1021.5
20240304134042 23 0.0 0.0 0.00 0.00 0.00 100 1021.8
20240304133105 23 0.0 0.0 0.00 0.00 0.00 100 1021.5
20240304132126 22 0.0 0.0 0.00 0.00 0.00 100 1021.7
20240304131147 23 0.0 0.0 0.00 0.00 0.00 100 1021.5
20240304130208 23 0.0 0.0 0.00 0.00 0.00 100 1021.2
20240304125230 23 0.0 0.0 0.00 0.00 0.00 100 1021.1
20240304124251 23 0.0 0.0 0.00 0.00 0.00 100 1021.1
20240304123314 23 0.0 0.0 0.00 0.00 0.00 100 1021.2
20240304122335 22 0.0 0.0 0.00 0.00 0.00 100 1021.3
20240304121356 22 0.0 0.0 0.00 0.00 0.00 100 1021.5
20240304120417 22 0.0 0.0 0.00 0.00 0.00 100 1021.2
20240304115438 22 0.0 0.0 0.00 0.00 0.00 100 1021.2
20240304114459 22 0.0 0.0 0.00 0.00 0.00 100 1021.2
20240304113521 22 0.0 0.0 0.00 0.00 0.00 100 1021.0
20240304112543 22 0.0 0.0 0.00 0.00 0.00 100 1020.9
20240304111603 22 0.0 0.0 0.00 0.00 0.00 100 1020.8
20240304110625 23 0.0 0.0 0.00 0.00 0.00 100 1020.5
20240304105649 23 0.0 0.0 0.00 0.00 0.00 100 1020.4
20240304104712 23 0.0 0.0 0.00 0.00 0.00 100 1020.1
20240304103732 23 0.0 0.0 0.00 0.00 0.00 100 1020.0
20240304102755 23 0.0 0.0 0.00 0.00 0.00 100 1019.8
20240304101817 23 0.0 0.0 0.00 0.00 0.00 100 1019.5
20240304100838 23 0.0 0.0 0.00 0.00 0.00 100 1019.4
20240304095859 24 0.0 0.0 0.00 0.00 0.00 100 1019.2
20240304094922 24 0.0 0.0 0.00 0.00 0.00 100 1019.3
20240304093944 24 0.0 0.0 0.00 0.00 0.00 100 1019.1
20240304093007 24 0.0 0.0 0.00 0.00 0.00 100 1019.0
20240304092029 25 0.0 0.0 0.00 0.00 0.00 99 1018.8
20240304090113 25 0.0 0.0 0.00 0.00 0.00 97 1018.7
20240304085135 26 0.0 0.0 0.00 0.00 0.00 95 1018.3
20240304084158 25 0.0 0.0 0.00 0.00 0.00 98 1018.5
20240304083219 25 0.0 0.0 0.00 0.00 0.00 96 1018.3
20240304082240 26 0.0 0.0 0.00 0.00 0.00 95 1018.3
20240304081302 26 0.0 0.0 0.00 0.00 0.00 93 1017.8
20240304080323 26 0.0 0.0 0.00 0.00 0.00 92 1017.6
20240304075341 27 0.0 0.0 0.00 0.00 0.00 92 1017.2
20240304074405 27 0.0 0.0 0.00 0.00 0.00 93 1017.1
20240304073427 27 0.0 0.0 0.00 0.00 0.00 92 1017.1
20240304072450 27 0.0 0.0 0.00 0.00 0.00 91 1017.0
20240304071512 27 0.0 0.0 0.00 0.00 0.00 91 1016.9
20240304070534 27 0.0 0.0 0.00 0.00 0.00 91 1016.6
20240304065553 28 0.0 0.0 0.00 0.00 0.00 90 1016.7
20240304064617 28 0.0 0.0 0.00 0.00 0.00 88 1016.4
20240304063641 28 0.0 0.0 0.00 0.00 0.00 84 1016.5
20240304062700 29 0.0 0.0 0.00 0.00 0.00 82 1016.2
20240304061725 29 0.0 0.0 0.00 0.00 0.00 82 1016.3
20240304060747 29 0.0 0.0 0.00 0.00 0.00 81 1016.3
20240304055808 29 0.0 0.0 0.00 0.00 0.00 80 1015.9
20240304054829 29 0.0 0.0 0.00 0.00 0.00 81 1016.0
20240304053852 30 0.0 0.0 0.00 0.00 0.00 81 1015.7
20240304052914 30 0.0 0.0 0.00 0.00 0.00 81 1015.7
20240304051936 30 0.0 0.0 0.00 0.00 0.00 81 1015.7
20240304050959 30 0.0 0.0 0.00 0.00 0.00 80 1015.7
20240304050020 30 0.0 0.0 0.00 0.00 0.00 80 1015.3
20240304045042 30 0.0 0.0 0.00 0.00 0.00 77 1015.2
20240304044107 31 0.0 0.0 0.00 0.00 0.00 77 1014.9
20240304043127 31 0.0 0.0 0.00 0.00 0.00 75 1014.8
20240304042149 31 0.0 0.0 0.00 0.00 0.00 79 1014.5
20240304041208 32 0.0 0.0 0.00 0.00 0.00 76 1014.2
20240304040232 32 0.0 0.0 0.00 0.00 0.00 76 1013.6
20240304035255 32 0.0 0.0 0.00 0.00 0.00 77 1013.4
20240304034316 33 0.0 0.0 0.00 0.00 0.00 75 1013.3
20240304033337 33 0.0 0.0 0.00 0.00 0.00 73 1013.0
20240304032400 34 0.0 0.0 0.00 0.00 0.00 73 1012.4
20240304031420 34 0.0 0.0 0.00 0.00 0.00 71 1011.8
20240304030442 35 0.0 0.0 0.00 0.00 0.00 68 1011.2
20240304025506 36 0.0 0.0 0.00 0.00 0.00 64 1010.3
20240304024529 37 0.0 0.0 0.00 0.00 0.00 60 1009.3
20240304023553 39 0.0 0.0 0.00 0.00 0.00 54 1008.3
20240304022617 43 0.0 0.0 0.00 0.00 0.00 44 1005.9
20240304021640 43 0.0 0.0 0.00 0.00 0.00 42 1005.3
20240304020701 44 0.0 0.0 0.00 0.00 0.00 41 1004.8
20240304015722 44 0.0 0.0 0.00 0.00 0.00 41 1004.2
20240304014744 45 0.0 0.0 0.00 0.00 0.00 41 1004.0
20240304013805 46 0.0 0.0 0.00 0.00 0.00 40 1003.2
20240304012827 46 0.0 0.0 0.00 0.00 0.00 38 1002.8
20240304011848 47 0.0 0.0 0.00 0.00 0.00 37 1002.4
20240304010910 48 0.0 0.0 0.00 0.00 0.00 36 1001.6
20240304005932 50 0.0 0.0 0.00 0.00 0.00 35 1000.8
20240304004955 51 0.0 0.0 0.00 0.00 0.00 32 999.9
20240304004019 54 0.0 0.0 0.00 0.00 0.00 31 999.0
20240304003043 57 0.0 0.0 0.00 0.00 0.00 27 997.6
20240304002108 61 0.0 0.0 0.00 0.00 0.00 24 995.9
20240304001138 71 0.0 0.0 0.00 0.00 0.00 20 992.3
20240304000205 76 0.0 0.0 0.00 0.00 0.00 19 990.3
20240303235236 87 0.0 0.0 0.00 0.00 0.00 15 986.2
20240303234300 89 0.0 0.0 0.00 0.00 0.00 15 985.8
20240303233310 81 0.0 0.0 0.00 0.00 0.00 17 988.2
20240303232331 80 0.0 0.0 0.00 0.00 0.00 17 988.7
20240303231337 66 0.0 0.0 0.00 0.00 0.00 22 993.8
20240303230359 63 0.0 0.0 0.00 0.00 0.00 22 994.4
20240303225422 65 0.0 0.0 0.00 0.00 0.00 22 993.6
20240303224440 63 0.0 0.0 0.00 0.00 0.00 22 994.5
20240303223504 65 0.0 0.0 0.00 0.00 0.00 21 993.4
20240303222530 70 0.0 0.0 0.00 0.00 0.00 19 992.0
20240303221552 72 0.0 0.0 0.00 0.00 0.00 19 991.3
20240303220615 78 0.0 0.0 0.00 0.00 0.00 18 989.2
20240303215641 82 0.0 0.0 0.00 0.00 0.00 16 987.4
20240303214649 71 0.0 0.0 0.00 0.00 0.00 19 991.1
20240303213713 74 0.0 0.0 0.00 0.00 0.00 19 990.5
20240303212722 64 0.0 0.0 0.00 0.00 0.00 22 993.5
20240303211741 63 0.0 0.0 0.00 0.00 0.00 24 994.3
20240303210800 63 0.0 0.0 0.00 0.00 0.00 24 993.8
20240303205818 60 0.0 0.0 0.00 0.00 0.00 25 995.1
20240303204835 55 0.0 0.0 0.00 0.00 0.00 28 997.2
20240303203859 56 0.0 0.0 0.00 0.00 0.00 27 997.0
20240303202920 57 0.0 0.0 0.00 0.00 0.00 27 996.6
20240303201942 58 0.0 0.0 0.00 0.00 0.00 26 996.3
20240303201004 58 0.0 0.0 0.00 0.00 0.00 27 996.3
20240303200022 56 0.0 0.0 0.00 0.00 0.00 29 997.3
20240303195042 55 0.0 0.0 0.00 0.00 0.00 29 997.8
20240303194105 55 0.0 0.0 0.00 0.00 0.00 29 998.1
20240303193127 56 0.0 0.0 0.00 0.00 0.00 30 997.6
20240303192145 54 0.0 0.0 0.00 0.00 0.00 33 998.6
20240303191206 53 0.0 0.0 0.00 0.00 0.00 33 999.1
20240303190225 51 0.0 0.0 0.00 0.00 0.00 35 1000.1
20240303185247 51 0.0 0.0 0.00 0.00 0.00 35 1000.3
20240303184310 52 0.0 0.0 0.00 0.00 0.00 34 1000.2
20240303183330 52 0.0 0.0 0.00 0.00 0.00 34 1000.3
20240303182350 52 0.0 0.0 0.00 0.00 0.00 35 1000.3
20240303181409 51 0.0 0.0 0.00 0.00 0.00 36 1001.1
20240303180428 51 0.0 0.0 0.00 0.00 0.00 37 1001.2
20240303175450 50 0.0 0.0 0.00 0.00 0.00 35 1001.5
20240303174510 50 0.0 0.0 0.00 0.00 0.00 34 1001.9
20240303173530 47 0.0 0.0 0.00 0.00 0.00 34 1002.8
20240303172551 47 0.0 0.0 0.00 0.00 0.00 35 1003.1
20240303171612 46 0.0 0.0 0.00 0.00 0.00 33 1003.6
20240303170633 45 0.0 0.0 0.00 0.00 0.00 35 1003.7
20240303165655 45 0.0 0.0 0.00 0.00 0.00 34 1004.1
20240303164716 44 0.0 0.0 0.00 0.00 0.00 34 1004.5
20240303163737 44 0.0 0.0 0.00 0.00 0.00 36 1005.1
20240303162759 43 0.0 0.0 0.00 0.00 0.00 37 1005.2
20240303161818 43 0.0 0.0 0.00 0.00 0.00 34 1005.2
20240303160840 42 0.0 0.0 0.00 0.00 0.00 35 1005.7
20240303155900 42 0.0 0.0 0.00 0.00 0.00 36 1005.9
20240303154921 41 0.0 0.0 0.00 0.00 0.00 36 1006.2
20240303153942 40 0.0 0.0 0.00 0.00 0.00 36 1006.4
20240303153002 40 0.0 0.0 0.00 0.00 0.00 36 1006.9
20240303152022 40 0.0 0.0 0.00 0.00 0.00 39 1007.3
20240303151042 39 0.0 0.0 0.00 0.00 0.00 39 1007.7
20240303150102 39 0.0 0.0 0.00 0.00 0.00 40 1007.5
20240303145120 37 0.0 0.0 0.00 0.00 0.00 41 1007.8
20240303144140 36 0.0 0.0 0.00 0.00 0.00 44 1007.7
20240303143201 37 0.0 0.0 0.00 0.00 0.00 41 1008.4
20240303142222 36 0.0 0.0 0.00 0.00 0.00 42 1008.2
20240303141244 36 0.0 0.0 0.00 0.00 0.00 41 1008.4
20240303140305 36 0.0 0.0 0.00 0.00 0.00 41 1008.7